createdAt,value
2023-05-22T00:01:06.887Z,98207.59
2023-05-22T00:03:33.880Z,98211.25
2023-05-22T00:06:00.615Z,98205.09
2023-05-22T00:08:29.644Z,98206.16
2023-05-22T00:10:56.623Z,98202.22
2023-05-22T00:13:23.198Z,98203.28
2023-05-22T00:15:49.902Z,98214.13
2023-05-22T00:18:16.510Z,98206.91
2023-05-22T00:20:46.354Z,98203.63
2023-05-22T00:23:15.570Z,98198.06
2023-05-22T00:25:42.444Z,98203.13
2023-05-22T00:28:09.045Z,98200.50
2023-05-22T00:30:37.251Z,98190.13
2023-05-22T00:33:04.140Z,98180.84
2023-05-22T00:35:31.123Z,98186.38
2023-05-22T00:37:57.786Z,98189.09
2023-05-22T00:40:24.354Z,98173.16
2023-05-22T00:42:50.896Z,98176.16
2023-05-22T00:45:17.545Z,98179.41
2023-05-22T00:47:44.350Z,98171.38
2023-05-22T00:50:11.982Z,98175.94
2023-05-22T00:52:42.110Z,98171.13
2023-05-22T00:55:10.161Z,98168.22
2023-05-22T00:57:38.578Z,98171.84
2023-05-22T01:00:06.634Z,98169.97
2023-05-22T01:02:33.461Z,98164.28
2023-05-22T01:05:00.164Z,98168.91
2023-05-22T01:07:26.707Z,98172.63
2023-05-22T01:09:53.291Z,98170.56
2023-05-22T01:12:29.996Z,98172.72
2023-05-22T01:15:02.802Z,98173.09
2023-05-22T01:17:34.937Z,98168.06
2023-05-22T01:20:26.551Z,98172.38
2023-05-22T01:23:15.013Z,98178.69
2023-05-22T01:25:56.652Z,98185.22
2023-05-22T01:28:53.583Z,98176.44
2023-05-22T01:31:27.123Z,98176.44
2023-05-22T01:33:56.956Z,98176.81
2023-05-22T01:36:28.784Z,98176.81
2023-05-22T01:38:56.462Z,98174.09
2023-05-22T01:41:23.451Z,98178.06
2023-05-22T01:43:50.060Z,98185.88
2023-05-22T01:46:16.653Z,98185.63
2023-05-22T01:48:43.219Z,98186.19
2023-05-22T01:51:15.994Z,98184.97
2023-05-22T01:53:57.450Z,98185.44
2023-05-22T01:56:34.574Z,98193.94
2023-05-22T01:59:09.436Z,98186.44
2023-05-22T02:01:38.314Z,98187.56
2023-05-22T02:04:06.570Z,98195.47
2023-05-22T02:06:33.740Z,98190.84
2023-05-22T02:09:02.910Z,98199.91
2023-05-22T02:11:32.866Z,98200.78
2023-05-22T02:14:00.034Z,98207.88
2023-05-22T02:16:28.777Z,98203.78
2023-05-22T02:19:06.342Z,98207.03
2023-05-22T02:21:34.320Z,98208.66
2023-05-22T02:24:01.364Z,98204.66
2023-05-22T02:26:28.288Z,98197.88
2023-05-22T02:28:54.865Z,98206.63
2023-05-22T02:31:21.534Z,98200.63
2023-05-22T02:33:48.469Z,98207.41
2023-05-22T02:36:15.033Z,98205.28
2023-05-22T02:38:41.592Z,98203.59
2023-05-22T02:41:08.371Z,98198.81
2023-05-22T02:43:34.898Z,98199.31
2023-05-22T02:46:01.530Z,98196.56
2023-05-22T02:48:29.367Z,98200.06
2023-05-22T02:50:55.940Z,98201.16
2023-05-22T02:53:22.513Z,98190.63
2023-05-22T02:55:49.113Z,98190.13
2023-05-22T02:58:15.780Z,98194.41
2023-05-22T03:00:43.302Z,98193.34
2023-05-22T03:03:10.374Z,98189.84
2023-05-22T03:05:37.448Z,98189.06
2023-05-22T03:08:04.042Z,98188.22
2023-05-22T03:10:31.120Z,98188.75
2023-05-22T03:12:57.711Z,98196.81
2023-05-22T03:15:24.278Z,98192.28
2023-05-22T03:17:50.945Z,98183.66
2023-05-22T03:20:17.852Z,98188.53
2023-05-22T03:22:44.423Z,98185.06
2023-05-22T03:25:11.062Z,98178.59
2023-05-22T03:27:39.486Z,98190.72
2023-05-22T03:30:06.757Z,98189.84
2023-05-22T03:32:37.137Z,98181.47
2023-05-22T03:35:05.202Z,98185.19
2023-05-22T03:37:31.782Z,98189.59
2023-05-22T03:39:58.373Z,98183.09
2023-05-22T03:42:24.902Z,98182.50
2023-05-22T03:44:51.485Z,98182.59
2023-05-22T03:47:17.977Z,98187.53
2023-05-22T03:49:44.579Z,98187.97
2023-05-22T03:52:11.384Z,98188.06
2023-05-22T03:54:37.894Z,98186.41
2023-05-22T03:57:05.791Z,98191.84
2023-05-22T03:59:32.281Z,98200.19
2023-05-22T04:02:01.254Z,98195.09
2023-05-22T04:04:28.477Z,98193.94
2023-05-22T04:06:58.252Z,98201.75
2023-05-22T04:09:31.427Z,98197.75
2023-05-22T04:11:58.538Z,98200.41
2023-05-22T04:14:25.044Z,98195.53
2023-05-22T04:16:51.596Z,98202.03
2023-05-22T04:19:18.287Z,98208.66
2023-05-22T04:21:45.215Z,98197.22
2023-05-22T04:24:11.718Z,98204.22
2023-05-22T04:26:41.734Z,98208.41
2023-05-22T04:29:10.511Z,98212.44
2023-05-22T04:31:37.410Z,98209.84
2023-05-22T04:34:04.235Z,98215.91
2023-05-22T04:36:31.143Z,98217.97
2023-05-22T04:38:57.777Z,98214.97
2023-05-22T04:41:26.653Z,98215.38
2023-05-22T04:43:54.549Z,98215.06
2023-05-22T04:46:21.240Z,98222.28
2023-05-22T04:48:47.883Z,98225.81
2023-05-22T04:51:14.530Z,98220.25
2023-05-22T04:53:41.104Z,98222.66
2023-05-22T04:56:07.793Z,98229.22
2023-05-22T04:58:34.257Z,98221.56
2023-05-22T05:01:00.895Z,98228.91
2023-05-22T05:03:28.477Z,98233.47
2023-05-22T05:05:55.137Z,98233.91
2023-05-22T05:08:21.724Z,98237.13
2023-05-22T05:10:48.292Z,98236.66
2023-05-22T05:13:14.921Z,98235.28
2023-05-22T05:15:41.400Z,98232.53
2023-05-22T05:18:08.008Z,98233.00
2023-05-22T05:20:34.565Z,98237.66
2023-05-22T05:23:01.144Z,98235.25
2023-05-22T05:25:27.966Z,98225.88
2023-05-22T05:27:54.528Z,98221.47
2023-05-22T05:30:21.137Z,98226.56
2023-05-22T05:32:47.685Z,98228.50
2023-05-22T05:35:14.400Z,98226.97
2023-05-22T05:37:41.778Z,98230.94
2023-05-22T05:40:09.220Z,98229.19
2023-05-22T05:42:35.966Z,98227.47
2023-05-22T05:45:02.515Z,98221.06
2023-05-22T05:47:29.794Z,98230.03
2023-05-22T05:49:56.364Z,98233.13
2023-05-22T05:52:22.915Z,98227.88
2023-05-22T05:54:49.423Z,98234.53
2023-05-22T05:57:16.482Z,98226.69
2023-05-22T05:59:43.021Z,98233.56
2023-05-22T06:02:09.857Z,98228.13
2023-05-22T06:04:36.780Z,98229.09
2023-05-22T06:07:03.300Z,98239.47
2023-05-22T06:09:29.772Z,98236.91
2023-05-22T06:11:56.337Z,98241.59
2023-05-22T06:14:22.865Z,98243.88
2023-05-22T06:16:49.434Z,98241.81
2023-05-22T06:19:16.226Z,98240.91
2023-05-22T06:21:42.840Z,98246.88
2023-05-22T06:24:09.564Z,98237.56
2023-05-22T06:26:36.205Z,98238.66
2023-05-22T06:29:02.705Z,98236.56
2023-05-22T06:31:29.404Z,98234.44
2023-05-22T06:33:56.176Z,98232.59
2023-05-22T06:36:22.809Z,98229.44
2023-05-22T06:38:49.699Z,98227.84
2023-05-22T06:41:16.273Z,98227.19
2023-05-22T06:43:42.744Z,98226.09
2023-05-22T06:46:09.517Z,98226.47
2023-05-22T06:48:36.259Z,98215.81
2023-05-22T06:51:02.948Z,98223.53
2023-05-22T06:53:29.654Z,98230.88
2023-05-22T06:55:56.834Z,98219.75
2023-05-22T06:58:23.369Z,98223.13
2023-05-22T07:00:49.957Z,98220.34
2023-05-22T07:03:16.636Z,98235.03
2023-05-22T07:05:43.280Z,98227.81
2023-05-22T07:08:10.396Z,98231.22
2023-05-22T07:10:37.086Z,98231.00
2023-05-22T07:13:03.950Z,98225.00
2023-05-22T07:15:30.518Z,98230.53
2023-05-22T07:17:57.171Z,98232.97
2023-05-22T07:20:25.691Z,98226.69
2023-05-22T07:22:52.217Z,98230.97
2023-05-22T07:25:18.709Z,98228.97
2023-05-22T07:27:45.264Z,98228.56
2023-05-22T07:30:12.363Z,98220.66
2023-05-22T07:32:39.025Z,98229.31
2023-05-22T07:35:06.110Z,98233.09
2023-05-22T07:37:32.895Z,98235.56
2023-05-22T07:39:59.493Z,98236.00
2023-05-22T07:42:27.299Z,98227.88
2023-05-22T07:44:53.772Z,98242.59
2023-05-22T07:47:20.351Z,98239.63
2023-05-22T07:49:46.961Z,98228.78
2023-05-22T07:52:13.489Z,98228.88
2023-05-22T07:54:41.523Z,98233.91
2023-05-22T07:57:08.994Z,98230.06
2023-05-22T07:59:37.574Z,98231.19
2023-05-22T08:02:04.393Z,98232.53
2023-05-22T08:04:31.121Z,98231.44
2023-05-22T08:06:57.733Z,98229.97
2023-05-22T08:09:24.312Z,98228.38
2023-05-22T08:11:50.867Z,98233.41
2023-05-22T08:14:17.414Z,98226.06
2023-05-22T08:16:44.009Z,98218.38
2023-05-22T08:19:11.118Z,98219.97
2023-05-22T08:21:37.945Z,98217.28
2023-05-22T08:24:04.597Z,98222.53
2023-05-22T08:26:33.282Z,98217.69
2023-05-22T08:29:00.531Z,98211.72
2023-05-22T08:31:29.333Z,98226.56
2023-05-22T08:34:02.478Z,98219.63
2023-05-22T08:36:34.037Z,98217.25
2023-05-22T08:39:01.449Z,98217.84
2023-05-22T08:41:29.408Z,98217.56
2023-05-22T08:43:56.010Z,98217.53
2023-05-22T08:46:26.210Z,98221.88
2023-05-22T08:48:57.055Z,98215.63
2023-05-22T08:51:28.358Z,98222.38
2023-05-22T08:53:58.931Z,98220.19
2023-05-22T08:56:28.644Z,98217.09
2023-05-22T08:58:57.386Z,98220.22
2023-05-22T09:01:24.689Z,98214.25
2023-05-22T09:03:51.764Z,98220.19
2023-05-22T09:06:18.622Z,98214.22
2023-05-22T09:08:46.035Z,98211.56
2023-05-22T09:11:13.266Z,98211.53
2023-05-22T09:13:41.287Z,98209.84
2023-05-22T09:16:12.754Z,98208.00
2023-05-22T09:18:40.185Z,98204.72
2023-05-22T09:21:14.786Z,98210.69
2023-05-22T09:23:53.936Z,98211.34
2023-05-22T09:26:21.036Z,98206.69
2023-05-22T09:28:47.657Z,98205.97
2023-05-22T09:31:14.624Z,98202.00
2023-05-22T09:33:44.152Z,98198.06
2023-05-22T09:36:11.056Z,98201.63
2023-05-22T09:38:37.684Z,98194.03
2023-05-22T09:41:04.215Z,98191.97
2023-05-22T09:43:31.225Z,98201.47
2023-05-22T09:46:01.722Z,98185.22
2023-05-22T09:48:28.646Z,98189.84
2023-05-22T09:50:56.112Z,98187.63
2023-05-22T09:53:27.942Z,98190.09
2023-05-22T09:55:56.768Z,98189.25
2023-05-22T09:58:25.231Z,98192.31
2023-05-22T10:00:52.958Z,98190.59
2023-05-22T10:03:23.339Z,98185.47
2023-05-22T10:05:52.466Z,98191.44
2023-05-22T10:08:23.370Z,98190.78
2023-05-22T10:10:53.266Z,98179.97
2023-05-22T10:13:20.873Z,98191.16
2023-05-22T10:15:49.098Z,98190.41
2023-05-22T10:18:17.275Z,98182.44
2023-05-22T10:20:46.846Z,98187.09
2023-05-22T10:23:16.522Z,98191.47
2023-05-22T10:25:44.611Z,98186.94
2023-05-22T10:28:13.393Z,98181.75
2023-05-22T10:30:40.179Z,98174.66
2023-05-22T10:33:14.578Z,98175.00
2023-05-22T10:35:55.426Z,98170.75
2023-05-22T10:38:24.737Z,98169.78
2023-05-22T10:40:51.624Z,98169.28
2023-05-22T10:43:18.455Z,98162.75
2023-05-22T10:45:46.737Z,98157.47
2023-05-22T10:48:13.646Z,98160.59
2023-05-22T10:50:41.041Z,98144.88
2023-05-22T10:53:28.041Z,98147.47
2023-05-22T10:55:56.943Z,98146.31
2023-05-22T10:58:28.716Z,98141.31
2023-05-22T11:01:21.441Z,98147.38
2023-05-22T11:04:10.600Z,98150.91
2023-05-22T11:06:47.132Z,98143.91
2023-05-22T11:09:29.876Z,98130.47
2023-05-22T11:12:25.587Z,98128.88
2023-05-22T11:14:53.410Z,98127.97
2023-05-22T11:17:24.098Z,98130.63
2023-05-22T11:20:00.708Z,98131.88
2023-05-22T11:22:51.218Z,98132.81
2023-05-22T11:25:19.375Z,98126.44
2023-05-22T11:27:47.763Z,98125.38
2023-05-22T11:30:15.675Z,98125.69
2023-05-22T11:32:48.023Z,98121.03
2023-05-22T11:35:15.703Z,98119.91
2023-05-22T11:37:42.281Z,98121.78
2023-05-22T11:40:09.991Z,98125.69
2023-05-22T11:42:37.736Z,98123.75
2023-05-22T11:45:05.260Z,98134.09
2023-05-22T11:47:31.957Z,98124.09
2023-05-22T11:49:59.918Z,98134.09
2023-05-22T11:52:31.600Z,98132.38
2023-05-22T11:55:02.429Z,98136.16
2023-05-22T11:57:29.035Z,98119.03
2023-05-22T11:59:56.031Z,98131.53
2023-05-22T12:02:22.648Z,98128.94
2023-05-22T12:04:54.604Z,98129.44
2023-05-22T12:07:22.479Z,98127.00
2023-05-22T12:09:49.263Z,98131.13
2023-05-22T12:12:16.271Z,98135.53
2023-05-22T12:14:46.024Z,98131.81
2023-05-22T12:17:13.401Z,98130.22
2023-05-22T12:19:41.200Z,98134.09
2023-05-22T12:22:08.998Z,98128.06
2023-05-22T12:24:46.041Z,98125.16
2023-05-22T12:27:13.497Z,98125.34
2023-05-22T12:29:41.145Z,98124.72
2023-05-22T12:32:11.879Z,98122.13
2023-05-22T12:34:48.098Z,98114.31
2023-05-22T12:37:22.840Z,98103.38
2023-05-22T12:39:57.512Z,98100.00
2023-05-22T12:42:24.943Z,98096.66
2023-05-22T12:44:56.615Z,98104.31
2023-05-22T12:47:24.538Z,98106.84
2023-05-22T12:49:51.619Z,98109.75
2023-05-22T12:52:18.188Z,98109.81
2023-05-22T12:54:44.895Z,98105.66
2023-05-22T12:57:11.492Z,98107.94
2023-05-22T12:59:38.057Z,98093.84
2023-05-22T13:02:05.539Z,98087.31
2023-05-22T13:04:32.479Z,98085.91
2023-05-22T13:06:59.084Z,98085.41
2023-05-22T13:09:25.958Z,98085.97
2023-05-22T13:11:52.551Z,98087.22
2023-05-22T13:14:19.395Z,98080.19
2023-05-22T13:16:45.970Z,98081.47
2023-05-22T13:19:12.587Z,98079.88
2023-05-22T13:21:39.182Z,98087.09
2023-05-22T13:24:05.848Z,98092.25
2023-05-22T13:26:32.371Z,98094.56
2023-05-22T13:28:58.902Z,98093.13
2023-05-22T13:31:25.519Z,98096.75
2023-05-22T13:33:52.273Z,98084.16
2023-05-22T13:36:19.035Z,98083.34
2023-05-22T13:38:45.694Z,98085.44
2023-05-22T13:41:12.397Z,98085.44
2023-05-22T13:43:38.870Z,98077.47
2023-05-22T13:46:05.654Z,98076.41
2023-05-22T13:48:32.238Z,98075.63
2023-05-22T13:50:58.766Z,98064.06
2023-05-22T13:53:25.356Z,98059.28
2023-05-22T13:55:51.866Z,98056.19
2023-05-22T13:58:18.337Z,98059.31
2023-05-22T14:00:44.824Z,98060.34
2023-05-22T14:03:17.291Z,98044.25
2023-05-22T14:05:45.390Z,98037.50
2023-05-22T14:08:12.621Z,98036.13
2023-05-22T14:10:39.662Z,98046.53
2023-05-22T14:13:06.419Z,98033.81
2023-05-22T14:15:33.024Z,98034.75
2023-05-22T14:17:59.908Z,98037.28
2023-05-22T14:20:26.758Z,98037.06
2023-05-22T14:22:57.501Z,98035.47
2023-05-22T14:25:26.286Z,98042.63
2023-05-22T14:27:54.176Z,98041.44
2023-05-22T14:30:20.731Z,98043.84
2023-05-22T14:32:47.540Z,98038.69
2023-05-22T14:35:14.186Z,98037.50
2023-05-22T14:37:40.771Z,98038.72
2023-05-22T14:40:08.225Z,98037.88
2023-05-22T14:42:36.099Z,98034.34
2023-05-22T14:45:03.924Z,98037.53
2023-05-22T14:47:30.455Z,98037.53
2023-05-22T14:50:03.092Z,98042.28
2023-05-22T14:52:43.497Z,98035.94
2023-05-22T14:55:10.097Z,98043.50
2023-05-22T14:57:36.607Z,98049.78
2023-05-22T15:00:04.935Z,98049.34
2023-05-22T15:02:31.559Z,98048.34
2023-05-22T15:04:58.086Z,98051.81
2023-05-22T15:07:29.399Z,98040.59
2023-05-22T15:10:07.886Z,98044.28
2023-05-22T15:12:34.435Z,98040.88
2023-05-22T15:15:01.562Z,98042.00
2023-05-22T15:17:28.135Z,98042.63
2023-05-22T15:19:54.615Z,98045.88
2023-05-22T15:22:21.116Z,98041.22
2023-05-22T15:24:48.174Z,98046.34
2023-05-22T15:27:14.894Z,98046.66
2023-05-22T15:29:41.986Z,98048.81
2023-05-22T15:32:09.203Z,98043.84
2023-05-22T15:34:36.046Z,98042.47
2023-05-22T15:37:02.545Z,98046.59
2023-05-22T15:39:29.668Z,98035.00
2023-05-22T15:42:05.879Z,98046.03
2023-05-22T15:44:33.210Z,98041.28
2023-05-22T15:46:59.746Z,98044.69
2023-05-22T15:49:28.033Z,98050.97
2023-05-22T15:51:58.358Z,98047.25
2023-05-22T15:54:24.974Z,98051.75
2023-05-22T15:56:51.594Z,98041.56
2023-05-22T15:59:18.128Z,98054.13
2023-05-22T16:01:44.774Z,98049.13
2023-05-22T16:04:11.527Z,98041.63
2023-05-22T16:06:38.032Z,98042.78
2023-05-22T16:09:04.561Z,98040.56
2023-05-22T16:11:31.192Z,98033.97
2023-05-22T16:13:57.756Z,98044.88
2023-05-22T16:16:24.334Z,98032.22
2023-05-22T16:18:50.993Z,98025.44
2023-05-22T16:21:17.494Z,98026.75
2023-05-22T16:23:44.035Z,98026.47
2023-05-22T16:26:10.637Z,98031.84
2023-05-22T16:28:37.189Z,98031.97
2023-05-22T16:31:06.114Z,98038.94
2023-05-22T16:33:34.422Z,98033.25
2023-05-22T16:36:02.660Z,98035.81
2023-05-22T16:38:29.254Z,98024.41
2023-05-22T16:40:55.975Z,98032.53
2023-05-22T16:43:22.489Z,98030.69
2023-05-22T16:45:51.169Z,98034.03
2023-05-22T16:48:18.280Z,98037.19
2023-05-22T16:50:46.615Z,98046.88
2023-05-22T16:53:16.677Z,98048.00
2023-05-22T16:55:43.465Z,98057.38
2023-05-22T16:58:11.568Z,98059.41
2023-05-22T17:00:40.142Z,98063.75
2023-05-22T17:03:08.418Z,98063.75
2023-05-22T17:05:36.660Z,98063.06
2023-05-22T17:08:03.447Z,98071.56
2023-05-22T17:10:30.071Z,98082.03
2023-05-22T17:12:56.717Z,98079.50
2023-05-22T17:15:23.509Z,98080.91
2023-05-22T17:17:50.792Z,98084.63
2023-05-22T17:20:17.472Z,98084.78
2023-05-22T17:22:44.061Z,98092.72
2023-05-22T17:25:10.621Z,98092.09
2023-05-22T17:27:37.199Z,98101.06
2023-05-22T17:30:04.992Z,98110.66
2023-05-22T17:32:31.804Z,98124.22
2023-05-22T17:34:58.651Z,98126.00
2023-05-22T17:37:25.183Z,98133.94
2023-05-22T17:39:51.844Z,98138.38
2023-05-22T17:42:18.417Z,98150.09
2023-05-22T17:44:45.090Z,98151.25
2023-05-22T17:47:13.305Z,98145.50
2023-05-22T17:49:39.823Z,98158.53
2023-05-22T17:52:08.652Z,98156.34
2023-05-22T17:54:35.752Z,98163.91
2023-05-22T17:57:04.098Z,98168.09
2023-05-22T17:59:32.491Z,98172.53
2023-05-22T18:01:59.156Z,98173.91
2023-05-22T18:04:26.037Z,98174.97
2023-05-22T18:06:52.711Z,98170.44
2023-05-22T18:09:19.268Z,98175.22
2023-05-22T18:11:45.893Z,98172.25
2023-05-22T18:14:12.637Z,98168.44
2023-05-22T18:16:39.231Z,98173.69
2023-05-22T18:19:05.863Z,98174.00
2023-05-22T18:21:32.364Z,98165.94
2023-05-22T18:23:59.017Z,98162.22
2023-05-22T18:26:26.712Z,98172.09
2023-05-22T18:28:53.318Z,98174.59
2023-05-22T18:31:20.018Z,98171.09
2023-05-22T18:33:46.644Z,98173.72
2023-05-22T18:36:13.397Z,98169.81
2023-05-22T18:38:39.905Z,98170.97
2023-05-22T18:41:07.211Z,98174.72
2023-05-22T18:43:33.804Z,98181.34
2023-05-22T18:46:00.517Z,98186.81
2023-05-22T18:48:28.219Z,98183.78
2023-05-22T18:50:57.378Z,98182.50
2023-05-22T18:53:25.300Z,98188.13
2023-05-22T18:55:53.757Z,98182.03
2023-05-22T18:58:20.648Z,98176.91
2023-05-22T19:00:47.267Z,98167.38
2023-05-22T19:03:14.116Z,98174.97
2023-05-22T19:05:41.169Z,98174.16
2023-05-22T19:08:07.747Z,98170.47
2023-05-22T19:10:34.420Z,98179.47
2023-05-22T19:13:01.006Z,98180.94
2023-05-22T19:15:27.618Z,98186.72
2023-05-22T19:17:54.145Z,98196.47
2023-05-22T19:20:20.836Z,98190.53
2023-05-22T19:22:47.391Z,98192.28
2023-05-22T19:25:13.961Z,98188.09
2023-05-22T19:27:40.484Z,98198.41
2023-05-22T19:30:07.545Z,98207.56
2023-05-22T19:32:34.247Z,98206.56
2023-05-22T19:35:01.499Z,98206.56
2023-05-22T19:37:28.059Z,98202.09
2023-05-22T19:39:54.572Z,98212.66
2023-05-22T19:42:21.110Z,98204.25
2023-05-22T19:44:54.510Z,98212.28
2023-05-22T19:47:21.057Z,98224.97
2023-05-22T19:49:47.553Z,98216.91
2023-05-22T19:52:14.025Z,98225.25
2023-05-22T19:54:40.569Z,98224.59
2023-05-22T19:57:07.238Z,98222.53
2023-05-22T19:59:36.413Z,98230.91
2023-05-22T20:02:03.319Z,98225.06
2023-05-22T20:04:30.409Z,98236.09
2023-05-22T20:06:58.724Z,98234.31
2023-05-22T20:09:26.940Z,98237.44
2023-05-22T20:11:53.607Z,98235.41
2023-05-22T20:14:20.133Z,98239.28
2023-05-22T20:16:46.671Z,98252.53
2023-05-22T20:19:14.799Z,98242.75
2023-05-22T20:21:41.471Z,98244.78
2023-05-22T20:24:21.010Z,98253.28
2023-05-22T20:26:50.496Z,98256.25
2023-05-22T20:29:20.443Z,98266.53
2023-05-22T20:31:50.301Z,98258.22
2023-05-22T20:34:19.891Z,98262.06
2023-05-22T20:36:46.628Z,98266.53
2023-05-22T20:39:13.543Z,98268.56
2023-05-22T20:41:40.179Z,98267.44
2023-05-22T20:44:06.804Z,98271.38
2023-05-22T20:46:33.801Z,98274.59
2023-05-22T20:49:03.425Z,98269.91
2023-05-22T20:51:32.575Z,98275.84
2023-05-22T20:53:59.873Z,98287.56
2023-05-22T20:56:27.175Z,98301.50
2023-05-22T20:58:54.700Z,98302.50
2023-05-22T21:01:21.409Z,98316.44
2023-05-22T21:03:49.854Z,98322.28
2023-05-22T21:06:16.450Z,98330.25
2023-05-22T21:08:42.909Z,98330.38
2023-05-22T21:11:09.485Z,98335.19
2023-05-22T21:13:36.352Z,98336.75
2023-05-22T21:16:02.884Z,98326.75
2023-05-22T21:18:29.389Z,98327.56
2023-05-22T21:20:55.851Z,98327.06
2023-05-22T21:23:24.539Z,98329.16
2023-05-22T21:25:51.413Z,98320.78
2023-05-22T21:28:17.889Z,98322.72
2023-05-22T21:30:44.464Z,98323.41
2023-05-22T21:33:12.026Z,98322.72
2023-05-22T21:35:38.535Z,98328.78
2023-05-22T21:38:05.069Z,98336.41
2023-05-22T21:40:31.605Z,98325.53
2023-05-22T21:42:58.124Z,98325.31
2023-05-22T21:45:24.626Z,98333.22
2023-05-22T21:47:51.282Z,98334.50
2023-05-22T21:50:17.970Z,98334.19
2023-05-22T21:52:44.511Z,98331.66
2023-05-22T21:55:11.139Z,98336.38
2023-05-22T21:57:37.710Z,98344.06
2023-05-22T22:00:04.525Z,98340.47
2023-05-22T22:02:31.248Z,98338.22
2023-05-22T22:04:57.771Z,98342.03
2023-05-22T22:07:24.268Z,98340.72
2023-05-22T22:09:50.861Z,98337.44
2023-05-22T22:12:17.392Z,98342.88
2023-05-22T22:14:43.931Z,98344.38
2023-05-22T22:17:10.452Z,98347.31
2023-05-22T22:19:37.087Z,98355.25
2023-05-22T22:22:03.996Z,98351.81
2023-05-22T22:24:30.532Z,98355.03
2023-05-22T22:26:57.166Z,98357.16
2023-05-22T22:29:23.741Z,98357.03
2023-05-22T22:31:50.486Z,98358.13
2023-05-22T22:34:17.199Z,98364.91
2023-05-22T22:36:43.998Z,98365.56
2023-05-22T22:39:11.184Z,98362.25
2023-05-22T22:41:37.895Z,98359.63
2023-05-22T22:44:04.507Z,98362.34
2023-05-22T22:46:31.318Z,98367.56
2023-05-22T22:49:01.828Z,98368.59
2023-05-22T22:51:31.630Z,98368.69
2023-05-22T22:53:58.443Z,98368.16
2023-05-22T22:56:29.242Z,98360.97
2023-05-22T22:58:57.106Z,98368.69
2023-05-22T23:01:24.011Z,98370.94
2023-05-22T23:03:50.942Z,98381.91
2023-05-22T23:06:18.230Z,98365.38
2023-05-22T23:08:44.803Z,98368.53
2023-05-22T23:11:11.343Z,98359.63
2023-05-22T23:13:40.433Z,98355.81
2023-05-22T23:16:07.042Z,98361.19
2023-05-22T23:18:33.576Z,98353.41
2023-05-22T23:21:00.150Z,98366.09
2023-05-22T23:23:27.907Z,98359.72
2023-05-22T23:25:55.319Z,98353.31
2023-05-22T23:28:22.627Z,98357.66
2023-05-22T23:30:49.194Z,98367.66
2023-05-22T23:33:16.038Z,98368.75
2023-05-22T23:35:42.662Z,98363.00
2023-05-22T23:38:09.224Z,98359.88
2023-05-22T23:40:35.781Z,98363.16
2023-05-22T23:43:02.346Z,98354.94
2023-05-22T23:45:28.881Z,98353.38
2023-05-22T23:47:55.440Z,98344.50
2023-05-22T23:50:21.948Z,98342.97
2023-05-22T23:52:48.591Z,98343.78
2023-05-22T23:55:15.661Z,98346.22
2023-05-22T23:57:42.249Z,98353.47
